sensor_id;sensor_type;location;lat;lon;timestamp;pressure;altitude;pressure_sealevel;temperature;humidity
8697;BME280;4385;48.848;8.924;2023-05-14T00:01:27;97403.53;;;19.96;100.00
8697;BME280;4385;48.848;8.924;2023-05-14T00:03:52;97404.44;;;19.95;100.00
8697;BME280;4385;48.848;8.924;2023-05-14T00:06:17;97395.09;;;19.94;100.00
8697;BME280;4385;48.848;8.924;2023-05-14T00:08:43;97394.25;;;19.93;100.00
8697;BME280;4385;48.848;8.924;2023-05-14T00:11:08;97393.41;;;19.93;100.00
8697;BME280;4385;48.848;8.924;2023-05-14T00:13:34;97389.19;;;19.92;100.00
8697;BME280;4385;48.848;8.924;2023-05-14T00:15:59;97401.13;;;19.91;100.00
8697;BME280;4385;48.848;8.924;2023-05-14T00:18:25;97392.63;;;19.91;100.00
8697;BME280;4385;48.848;8.924;2023-05-14T00:20:50;97391.78;;;19.90;100.00
8697;BME280;4385;48.848;8.924;2023-05-14T00:23:19;97390.06;;;19.91;100.00
8697;BME280;4385;48.848;8.924;2023-05-14T00:25:44;97388.38;;;19.90;100.00
8697;BME280;4385;48.848;8.924;2023-05-14T00:28:09;97381.59;;;19.89;100.00
8697;BME280;4385;48.848;8.924;2023-05-14T00:30:34;97377.38;;;19.88;100.00
8697;BME280;4385;48.848;8.924;2023-05-14T00:33:00;97373.19;;;19.85;100.00
8697;BME280;4385;48.848;8.924;2023-05-14T00:35:25;97363.78;;;19.86;100.00
8697;BME280;4385;48.848;8.924;2023-05-14T00:37:50;97367.25;;;19.85;100.00
8697;BME280;4385;48.848;8.924;2023-05-14T00:40:16;97368.97;;;19.84;100.00
8697;BME280;4385;48.848;8.924;2023-05-14T00:42:41;97362.19;;;19.83;100.00
8697;BME280;4385;48.848;8.924;2023-05-14T00:45:07;97363.94;;;19.81;100.00
8697;BME280;4385;48.848;8.924;2023-05-14T00:47:32;97357.97;;;19.80;100.00
8697;BME280;4385;48.848;8.924;2023-05-14T00:50:01;97351.19;;;19.79;100.00
8697;BME280;4385;48.848;8.924;2023-05-14T00:52:27;97361.41;;;19.79;100.00
8697;BME280;4385;48.848;8.924;2023-05-14T00:54:53;97354.66;;;19.78;100.00
8697;BME280;4385;48.848;8.924;2023-05-14T00:57:18;97357.19;;;19.78;100.00
8697;BME280;4385;48.848;8.924;2023-05-14T00:59:44;97349.53;;;19.78;100.00
8697;BME280;4385;48.848;8.924;2023-05-14T01:02:09;97345.28;;;19.77;100.00
8697;BME280;4385;48.848;8.924;2023-05-14T01:04:35;97344.50;;;19.75;100.00
8697;BME280;4385;48.848;8.924;2023-05-14T01:07:45;97350.44;;;19.76;100.00
8697;BME280;4385;48.848;8.924;2023-05-14T01:10:20;97345.38;;;19.74;100.00
8697;BME280;4385;48.848;8.924;2023-05-14T01:13:08;97342.00;;;19.74;100.00
8697;BME280;4385;48.848;8.924;2023-05-14T01:15:38;97352.22;;;19.74;100.00
8697;BME280;4385;48.848;8.924;2023-05-14T01:18:07;97342.00;;;19.74;100.00
8697;BME280;4385;48.848;8.924;2023-05-14T01:20:33;97337.69;;;19.74;100.00
8697;BME280;4385;48.848;8.924;2023-05-14T01:22:59;97337.75;;;19.73;100.00
8697;BME280;4385;48.848;8.924;2023-05-14T01:25:25;97331.81;;;19.72;100.00
8697;BME280;4385;48.848;8.924;2023-05-14T01:27:57;97336.13;;;19.70;100.00
8697;BME280;4385;48.848;8.924;2023-05-14T01:33:01;97339.63;;;19.67;100.00
8697;BME280;4385;48.848;8.924;2023-05-14T01:35:29;97343.88;;;19.67;100.00
8697;BME280;4385;48.848;8.924;2023-05-14T01:37:56;97347.28;;;19.67;100.00
8697;BME280;4385;48.848;8.924;2023-05-14T01:40:22;97344.78;;;19.66;100.00
8697;BME280;4385;48.848;8.924;2023-05-14T01:42:49;97346.50;;;19.65;100.00
8697;BME280;4385;48.848;8.924;2023-05-14T01:45:16;97348.25;;;19.63;100.00
8697;BME280;4385;48.848;8.924;2023-05-14T01:47:42;97348.28;;;19.62;100.00
8697;BME280;4385;48.848;8.924;2023-05-14T01:50:07;97351.75;;;19.61;100.00
8697;BME280;4385;48.848;8.924;2023-05-14T01:52:32;97352.63;;;19.60;100.00
8697;BME280;4385;48.848;8.924;2023-05-14T01:54:58;97354.34;;;19.59;100.00
8697;BME280;4385;48.848;8.924;2023-05-14T01:57:24;97360.38;;;19.56;100.00
8697;BME280;4385;48.848;8.924;2023-05-14T01:59:49;97355.28;;;19.56;100.00
8697;BME280;4385;48.848;8.924;2023-05-14T02:02:15;97350.16;;;19.56;100.00
8697;BME280;4385;48.848;8.924;2023-05-14T02:04:40;97347.66;;;19.55;100.00
8697;BME280;4385;48.848;8.924;2023-05-14T02:07:05;97340.03;;;19.53;100.00
8697;BME280;4385;48.848;8.924;2023-05-14T02:09:30;97343.44;;;19.52;100.00
8697;BME280;4385;48.848;8.924;2023-05-14T02:11:56;97334.97;;;19.52;100.00
8697;BME280;4385;48.848;8.924;2023-05-14T02:14:21;97337.56;;;19.50;100.00
8697;BME280;4385;48.848;8.924;2023-05-14T02:16:46;97336.75;;;19.48;100.00
8697;BME280;4385;48.848;8.924;2023-05-14T02:19:12;97331.66;;;19.48;100.00
8697;BME280;4385;48.848;8.924;2023-05-14T02:21:37;97339.31;;;19.48;100.00
8697;BME280;4385;48.848;8.924;2023-05-14T02:24:02;97342.75;;;19.47;100.00
8697;BME280;4385;48.848;8.924;2023-05-14T02:26:28;97338.50;;;19.46;100.00
8697;BME280;4385;48.848;8.924;2023-05-14T02:28:53;97336.00;;;19.44;100.00
8697;BME280;4385;48.848;8.924;2023-05-14T02:31:18;97339.44;;;19.43;100.00
8697;BME280;4385;48.848;8.924;2023-05-14T02:33:44;97342.88;;;19.42;100.00
8697;BME280;4385;48.848;8.924;2023-05-14T02:36:09;97335.28;;;19.41;100.00
8697;BME280;4385;48.848;8.924;2023-05-14T02:38:35;97340.38;;;19.41;100.00
8697;BME280;4385;48.848;8.924;2023-05-14T02:41:00;97343.78;;;19.40;100.00
8697;BME280;4385;48.848;8.924;2023-05-14T02:43:25;97339.56;;;19.39;100.00
8697;BME280;4385;48.848;8.924;2023-05-14T02:45:51;97336.19;;;19.38;100.00
8697;BME280;4385;48.848;8.924;2023-05-14T02:48:16;97337.91;;;19.38;100.00
8697;BME280;4385;48.848;8.924;2023-05-14T02:50:41;97342.16;;;19.37;100.00
8697;BME280;4385;48.848;8.924;2023-05-14T02:53:06;97335.41;;;19.36;100.00
8697;BME280;4385;48.848;8.924;2023-05-14T02:55:33;97337.09;;;19.36;100.00
8697;BME280;4385;48.848;8.924;2023-05-14T02:57:58;97331.16;;;19.35;100.00
8697;BME280;4385;48.848;8.924;2023-05-14T03:00:23;97334.59;;;19.34;100.00
8697;BME280;4385;48.848;8.924;2023-05-14T03:02:48;97335.44;;;19.35;100.00
8697;BME280;4385;48.848;8.924;2023-05-14T03:05:14;97342.25;;;19.34;100.00
8697;BME280;4385;48.848;8.924;2023-05-14T03:07:39;97349.06;;;19.34;100.00
8697;BME280;4385;48.848;8.924;2023-05-14T03:10:05;97335.44;;;19.35;100.00
8697;BME280;4385;48.848;8.924;2023-05-14T03:12:30;97340.56;;;19.35;100.00
8697;BME280;4385;48.848;8.924;2023-05-14T03:14:56;97347.38;;;19.34;100.00
8697;BME280;4385;48.848;8.924;2023-05-14T03:17:21;97341.41;;;19.34;100.00
8697;BME280;4385;48.848;8.924;2023-05-14T03:19:46;97347.41;;;19.33;100.00
8697;BME280;4385;48.848;8.924;2023-05-14T03:22:11;97350.00;;;19.31;100.00
8697;BME280;4385;48.848;8.924;2023-05-14T03:24:38;97350.00;;;19.31;100.00
8697;BME280;4385;48.848;8.924;2023-05-14T03:27:04;97346.59;;;19.30;100.00
8697;BME280;4385;48.848;8.924;2023-05-14T03:29:29;97347.50;;;19.29;100.00
8697;BME280;4385;48.848;8.924;2023-05-14T03:31:55;97342.38;;;19.29;100.00
8697;BME280;4385;48.848;8.924;2023-05-14T03:34:20;97343.28;;;19.28;100.00
8697;BME280;4385;48.848;8.924;2023-05-14T03:36:46;97335.63;;;19.28;100.00
8697;BME280;4385;48.848;8.924;2023-05-14T03:39:14;97339.03;;;19.27;100.00
8697;BME280;4385;48.848;8.924;2023-05-14T03:41:43;97336.50;;;19.26;100.00
8697;BME280;4385;48.848;8.924;2023-05-14T03:44:09;97334.84;;;19.25;100.00
8697;BME280;4385;48.848;8.924;2023-05-14T03:46:34;97327.16;;;19.26;100.00
8697;BME280;4385;48.848;8.924;2023-05-14T03:48:59;97330.59;;;19.25;100.00
8697;BME280;4385;48.848;8.924;2023-05-14T03:51:25;97326.38;;;19.23;100.00
8697;BME280;4385;48.848;8.924;2023-05-14T03:53:50;97328.91;;;19.24;100.00
8697;BME280;4385;48.848;8.924;2023-05-14T03:56:15;97327.22;;;19.23;100.00
8697;BME280;4385;48.848;8.924;2023-05-14T03:58:40;97332.38;;;19.22;100.00
8697;BME280;4385;48.848;8.924;2023-05-14T04:01:06;97333.28;;;19.21;100.00
8697;BME280;4385;48.848;8.924;2023-05-14T04:03:32;97334.09;;;19.21;100.00
8697;BME280;4385;48.848;8.924;2023-05-14T04:05:57;97334.97;;;19.20;100.00
8697;BME280;4385;48.848;8.924;2023-05-14T04:08:22;97340.09;;;19.20;100.00
8697;BME280;4385;48.848;8.924;2023-05-14T04:10:49;97342.66;;;19.20;100.00
8697;BME280;4385;48.848;8.924;2023-05-14T04:13:15;97334.19;;;19.18;100.00
8697;BME280;4385;48.848;8.924;2023-05-14T04:15:40;97338.44;;;19.19;100.00
8697;BME280;4385;48.848;8.924;2023-05-14T04:18:06;97328.22;;;19.19;100.00
8697;BME280;4385;48.848;8.924;2023-05-14T04:20:31;97331.56;;;19.19;100.00
8697;BME280;4385;48.848;8.924;2023-05-14T04:22:56;97336.69;;;19.19;100.00
8697;BME280;4385;48.848;8.924;2023-05-14T04:25:22;97337.56;;;19.18;100.00
8697;BME280;4385;48.848;8.924;2023-05-14T04:27:48;97335.91;;;19.17;100.00
8697;BME280;4385;48.848;8.924;2023-05-14T04:30:13;97329.13;;;19.16;100.00
8697;BME280;4385;48.848;8.924;2023-05-14T04:32:39;97327.44;;;19.15;100.00
8697;BME280;4385;48.848;8.924;2023-05-14T04:35:05;97337.72;;;19.14;100.00
8697;BME280;4385;48.848;8.924;2023-05-14T04:37:30;97330.03;;;19.14;100.00
8697;BME280;4385;48.848;8.924;2023-05-14T04:39:57;97332.59;;;19.14;100.00
8697;BME280;4385;48.848;8.924;2023-05-14T04:42:22;97326.63;;;19.13;100.00
8697;BME280;4385;48.848;8.924;2023-05-14T04:44:47;97335.16;;;19.14;100.00
8697;BME280;4385;48.848;8.924;2023-05-14T04:47:13;97330.94;;;19.13;100.00
8697;BME280;4385;48.848;8.924;2023-05-14T04:49:38;97330.09;;;19.12;100.00
8697;BME280;4385;48.848;8.924;2023-05-14T04:52:05;97329.25;;;19.12;100.00
8697;BME280;4385;48.848;8.924;2023-05-14T04:54:30;97328.41;;;19.11;100.00
8697;BME280;4385;48.848;8.924;2023-05-14T04:56:55;97333.53;;;19.11;100.00
8697;BME280;4385;48.848;8.924;2023-05-14T04:59:21;97330.13;;;19.11;100.00
8697;BME280;4385;48.848;8.924;2023-05-14T05:01:46;97330.09;;;19.12;100.00
8697;BME280;4385;48.848;8.924;2023-05-14T05:04:11;97326.69;;;19.12;100.00
8697;BME280;4385;48.848;8.924;2023-05-14T05:06:37;97327.53;;;19.12;100.00
8697;BME280;4385;48.848;8.924;2023-05-14T05:09:02;97332.63;;;19.12;100.00
8697;BME280;4385;48.848;8.924;2023-05-14T05:11:28;97334.34;;;19.12;100.00
8697;BME280;4385;48.848;8.924;2023-05-14T05:13:53;97328.38;;;19.13;100.00
8697;BME280;4385;48.848;8.924;2023-05-14T05:16:19;97331.78;;;19.12;100.00
8697;BME280;4385;48.848;8.924;2023-05-14T05:18:44;97335.19;;;19.12;100.00
8697;BME280;4385;48.848;8.924;2023-05-14T05:21:09;97333.50;;;19.13;100.00
8697;BME280;4385;48.848;8.924;2023-05-14T05:23:35;97331.78;;;19.12;100.00
8697;BME280;4385;48.848;8.924;2023-05-14T05:26:00;97329.25;;;19.12;100.00
8697;BME280;4385;48.848;8.924;2023-05-14T05:28:25;97334.34;;;19.12;100.00
8697;BME280;4385;48.848;8.924;2023-05-14T05:30:50;97335.19;;;19.12;100.00
8697;BME280;4385;48.848;8.924;2023-05-14T05:33:16;97330.94;;;19.13;100.00
8697;BME280;4385;48.848;8.924;2023-05-14T05:35:41;97336.03;;;19.13;100.00
8697;BME280;4385;48.848;8.924;2023-05-14T05:38:08;97337.72;;;19.14;100.00
8697;BME280;4385;48.848;8.924;2023-05-14T05:40:33;97328.38;;;19.13;100.00
8697;BME280;4385;48.848;8.924;2023-05-14T05:42:59;97330.88;;;19.14;100.00
8697;BME280;4385;48.848;8.924;2023-05-14T05:45:24;97332.59;;;19.14;100.00
8697;BME280;4385;48.848;8.924;2023-05-14T05:47:49;97327.50;;;19.14;100.00
8697;BME280;4385;48.848;8.924;2023-05-14T05:50:14;97330.03;;;19.14;100.00
8697;BME280;4385;48.848;8.924;2023-05-14T05:52:40;97332.59;;;19.14;100.00
8697;BME280;4385;48.848;8.924;2023-05-14T05:55:05;97324.03;;;19.15;100.00
8697;BME280;4385;48.848;8.924;2023-05-14T05:57:31;97325.75;;;19.16;100.00
8697;BME280;4385;48.848;8.924;2023-05-14T05:59:56;97321.41;;;19.18;100.00
8697;BME280;4385;48.848;8.924;2023-05-14T06:02:22;97322.22;;;19.20;100.00
8697;BME280;4385;48.848;8.924;2023-05-14T06:04:47;97322.13;;;19.23;100.00
8697;BME280;4385;48.848;8.924;2023-05-14T06:07:12;97323.69;;;19.27;100.00
8697;BME280;4385;48.848;8.924;2023-05-14T06:09:38;97326.97;;;19.33;100.00
8697;BME280;4385;48.848;8.924;2023-05-14T06:12:03;97328.56;;;19.37;100.00
8697;BME280;4385;48.848;8.924;2023-05-14T06:14:29;97336.09;;;19.41;100.00
8697;BME280;4385;48.848;8.924;2023-05-14T06:16:54;97332.59;;;19.46;100.00
8697;BME280;4385;48.848;8.924;2023-05-14T06:19:19;97335.88;;;19.49;100.00
8697;BME280;4385;48.848;8.924;2023-05-14T06:21:45;97340.84;;;19.54;100.00
8697;BME280;4385;48.848;8.924;2023-05-14T06:24:10;97341.59;;;19.58;100.00
8697;BME280;4385;48.848;8.924;2023-05-14T06:26:35;97331.28;;;19.61;100.00
8697;BME280;4385;48.848;8.924;2023-05-14T06:29:00;97337.19;;;19.63;100.00
8697;BME280;4385;48.848;8.924;2023-05-14T06:31:26;97331.19;;;19.64;100.00
8697;BME280;4385;48.848;8.924;2023-05-14T06:33:51;97340.47;;;19.66;100.00
8697;BME280;4385;48.848;8.924;2023-05-14T06:36:16;97337.94;;;19.66;100.00
8697;BME280;4385;48.848;8.924;2023-05-14T06:38:41;97340.44;;;19.68;100.00
8697;BME280;4385;48.848;8.924;2023-05-14T06:41:07;97345.50;;;19.69;100.00
8697;BME280;4385;48.848;8.924;2023-05-14T06:43:32;97334.47;;;19.69;100.00
8697;BME280;4385;48.848;8.924;2023-05-14T06:45:57;97339.63;;;19.67;100.00
8697;BME280;4385;48.848;8.924;2023-05-14T06:48:23;97342.19;;;19.67;100.00
8697;BME280;4385;48.848;8.924;2023-05-14T06:50:48;97339.66;;;19.66;100.00
8697;BME280;4385;48.848;8.924;2023-05-14T06:53:14;97339.66;;;19.66;100.00
8697;BME280;4385;48.848;8.924;2023-05-14T06:55:39;97340.56;;;19.63;100.00
8697;BME280;4385;48.848;8.924;2023-05-14T06:58:05;97334.66;;;19.63;100.00
8697;BME280;4385;48.848;8.924;2023-05-14T07:00:31;97334.69;;;19.61;100.00
8697;BME280;4385;48.848;8.924;2023-05-14T07:02:56;97325.31;;;19.60;100.00
8697;BME280;4385;48.848;8.924;2023-05-14T07:05:21;97327.13;;;19.58;100.00
8697;BME280;4385;48.848;8.924;2023-05-14T07:07:47;97320.25;;;19.59;100.00
8697;BME280;4385;48.848;8.924;2023-05-14T07:10:12;97327.06;;;19.60;100.00
8697;BME280;4385;48.848;8.924;2023-05-14T07:12:37;97327.94;;;19.59;100.00
8697;BME280;4385;48.848;8.924;2023-05-14T07:15:03;97327.94;;;19.59;100.00
8697;BME280;4385;48.848;8.924;2023-05-14T07:17:28;97327.13;;;19.58;100.00
8697;BME280;4385;48.848;8.924;2023-05-14T07:19:53;97327.13;;;19.58;100.00
8697;BME280;4385;48.848;8.924;2023-05-14T07:22:22;97322.03;;;19.56;100.00
8697;BME280;4385;48.848;8.924;2023-05-14T07:24:47;97320.34;;;19.55;100.00
8697;BME280;4385;48.848;8.924;2023-05-14T07:27:13;97318.69;;;19.54;100.00
8697;BME280;4385;48.848;8.924;2023-05-14T07:29:38;97311.03;;;19.54;100.00
8697;BME280;4385;48.848;8.924;2023-05-14T07:32:04;97307.66;;;19.52;100.00
8697;BME280;4385;48.848;8.924;2023-05-14T07:34:29;97311.97;;;19.52;100.00
8697;BME280;4385;48.848;8.924;2023-05-14T07:36:54;97306.84;;;19.52;100.00
8697;BME280;4385;48.848;8.924;2023-05-14T07:39:20;97311.13;;;19.51;100.00
8697;BME280;4385;48.848;8.924;2023-05-14T07:41:45;97308.56;;;19.51;100.00
8697;BME280;4385;48.848;8.924;2023-05-14T07:44:10;97306.81;;;19.53;100.00
8697;BME280;4385;48.848;8.924;2023-05-14T07:46:36;97308.50;;;19.53;100.00
8697;BME280;4385;48.848;8.924;2023-05-14T07:49:01;97307.66;;;19.52;100.00
8697;BME280;4385;48.848;8.924;2023-05-14T07:51:26;97306.84;;;19.52;100.00
8697;BME280;4385;48.848;8.924;2023-05-14T07:53:55;97311.13;;;19.51;100.00
8697;BME280;4385;48.848;8.924;2023-05-14T07:56:21;97312.78;;;19.52;100.00
8697;BME280;4385;48.848;8.924;2023-05-14T07:58:47;97303.31;;;19.56;100.00
8697;BME280;4385;48.848;8.924;2023-05-14T08:01:12;97309.22;;;19.58;100.00
8697;BME280;4385;48.848;8.924;2023-05-14T08:03:37;97307.41;;;19.62;100.00
8697;BME280;4385;48.848;8.924;2023-05-14T08:06:03;97304.69;;;19.66;100.00
8697;BME280;4385;48.848;8.924;2023-05-14T08:08:28;97308.91;;;19.69;100.00
8697;BME280;4385;48.848;8.924;2023-05-14T08:10:54;97310.53;;;19.72;100.00
8697;BME280;4385;48.848;8.924;2023-05-14T08:13:19;97309.56;;;19.74;100.00
8697;BME280;4385;48.848;8.924;2023-05-14T08:15:44;97307.81;;;19.76;100.00
8697;BME280;4385;48.848;8.924;2023-05-14T08:18:10;97310.28;;;19.79;100.00
8697;BME280;4385;48.848;8.924;2023-05-14T08:20:35;97301.72;;;19.80;100.00
8697;BME280;4385;48.848;8.924;2023-05-14T08:23:00;97306.78;;;19.82;100.00
8697;BME280;4385;48.848;8.924;2023-05-14T08:25:26;97308.47;;;19.83;100.00
8697;BME280;4385;48.848;8.924;2023-05-14T08:27:51;97308.44;;;19.85;100.00
8697;BME280;4385;48.848;8.924;2023-05-14T08:30:18;97297.41;;;19.83;100.00
8697;BME280;4385;48.848;8.924;2023-05-14T08:32:43;97293.13;;;19.83;100.00
8697;BME280;4385;48.848;8.924;2023-05-14T08:35:08;97298.31;;;19.81;100.00
8697;BME280;4385;48.848;8.924;2023-05-14T08:37:34;97294.06;;;19.80;100.00
8697;BME280;4385;48.848;8.924;2023-05-14T08:39:59;97293.19;;;19.81;100.00
8697;BME280;4385;48.848;8.924;2023-05-14T08:42:25;97292.34;;;19.81;100.00
8697;BME280;4385;48.848;8.924;2023-05-14T08:45:00;97288.06;;;19.81;100.00
8697;BME280;4385;48.848;8.924;2023-05-14T08:47:28;97290.63;;;19.81;100.00
8697;BME280;4385;48.848;8.924;2023-05-14T08:50:05;97283.78;;;19.82;100.00
8697;BME280;4385;48.848;8.924;2023-05-14T08:52:31;97290.59;;;19.83;100.00
8697;BME280;4385;48.848;8.924;2023-05-14T08:55:03;97276.97;;;19.83;100.00
8697;BME280;4385;48.848;8.924;2023-05-14T08:57:29;97275.25;;;19.83;100.00
8697;BME280;4385;48.848;8.924;2023-05-14T08:59:56;97277.75;;;19.85;100.00
8697;BME280;4385;48.848;8.924;2023-05-14T09:02:27;97281.16;;;19.84;100.00
8697;BME280;4385;48.848;8.924;2023-05-14T09:05:02;97280.34;;;19.83;100.00
8697;BME280;4385;48.848;8.924;2023-05-14T09:07:28;97288.91;;;19.82;100.00
8697;BME280;4385;48.848;8.924;2023-05-14T09:09:54;97279.50;;;19.83;100.00
8697;BME280;4385;48.848;8.924;2023-05-14T09:12:20;97277.84;;;19.81;100.00
8697;BME280;4385;48.848;8.924;2023-05-14T09:14:46;97282.13;;;19.81;100.00
8697;BME280;4385;48.848;8.924;2023-05-14T09:17:12;97277.91;;;19.80;100.00
8697;BME280;4385;48.848;8.924;2023-05-14T09:19:41;97273.66;;;19.79;100.00
8697;BME280;4385;48.848;8.924;2023-05-14T09:22:09;97281.31;;;19.79;100.00
8697;BME280;4385;48.848;8.924;2023-05-14T09:24:36;97273.59;;;19.80;100.00
8697;BME280;4385;48.848;8.924;2023-05-14T09:27:03;97274.41;;;19.83;100.00
8697;BME280;4385;48.848;8.924;2023-05-14T09:29:28;97269.28;;;19.83;100.00
8697;BME280;4385;48.848;8.924;2023-05-14T09:31:55;97264.13;;;19.84;100.00
8697;BME280;4385;48.848;8.924;2023-05-14T09:34:28;97263.28;;;19.84;100.00
8697;BME280;4385;48.848;8.924;2023-05-14T09:36:58;97259.91;;;19.83;100.00
8697;BME280;4385;48.848;8.924;2023-05-14T09:39:24;97264.13;;;19.84;100.00
8697;BME280;4385;48.848;8.924;2023-05-14T09:41:50;97265.84;;;19.84;100.00
8697;BME280;4385;48.848;8.924;2023-05-14T09:44:19;97255.59;;;19.84;100.00
8697;BME280;4385;48.848;8.924;2023-05-14T09:46:45;97265.84;;;19.84;100.00
8697;BME280;4385;48.848;8.924;2023-05-14T09:49:10;97255.59;;;19.84;100.00
8697;BME280;4385;48.848;8.924;2023-05-14T09:51:36;97258.13;;;19.85;100.00
8697;BME280;4385;48.848;8.924;2023-05-14T09:54:03;97247.06;;;19.85;100.00
8697;BME280;4385;48.848;8.924;2023-05-14T09:56:29;97248.72;;;19.86;100.00
8697;BME280;4385;48.848;8.924;2023-05-14T09:58:55;97249.56;;;19.86;100.00
8697;BME280;4385;48.848;8.924;2023-05-14T10:01:21;97257.19;;;19.88;100.00
8697;BME280;4385;48.848;8.924;2023-05-14T10:03:47;97252.94;;;19.87;100.00
8697;BME280;4385;48.848;8.924;2023-05-14T10:06:15;97247.78;;;19.88;100.00
8697;BME280;4385;48.848;8.924;2023-05-14T10:08:43;97250.28;;;19.90;100.00
8697;BME280;4385;48.848;8.924;2023-05-14T10:11:14;97245.97;;;19.92;100.00
8697;BME280;4385;48.848;8.924;2023-05-14T10:13:45;97249.34;;;19.94;100.00
8697;BME280;4385;48.848;8.924;2023-05-14T10:16:25;97251.00;;;19.95;100.00
8697;BME280;4385;48.848;8.924;2023-05-14T10:18:55;97242.44;;;19.96;100.00
8697;BME280;4385;48.848;8.924;2023-05-14T10:21:25;97248.28;;;20.00;100.00
8697;BME280;4385;48.848;8.924;2023-05-14T10:23:52;97245.72;;;20.00;100.00
8697;BME280;4385;48.848;8.924;2023-05-14T10:26:18;97249.13;;;20.00;100.00
8697;BME280;4385;48.848;8.924;2023-05-14T10:28:44;97239.69;;;20.02;100.00
8697;BME280;4385;48.848;8.924;2023-05-14T10:31:09;97247.31;;;20.04;100.00
8697;BME280;4385;48.848;8.924;2023-05-14T10:33:48;97247.28;;;20.05;100.00
8697;BME280;4385;48.848;8.924;2023-05-14T10:36:19;97238.72;;;20.06;100.00
8697;BME280;4385;48.848;8.924;2023-05-14T10:38:54;97241.28;;;20.06;100.00
8697;BME280;4385;48.848;8.924;2023-05-14T10:41:21;97229.28;;;20.09;100.00
8697;BME280;4385;48.848;8.924;2023-05-14T10:43:46;97232.63;;;20.11;100.00
8697;BME280;4385;48.848;8.924;2023-05-14T10:46:12;97225.84;;;20.10;100.00
8697;BME280;4385;48.848;8.924;2023-05-14T10:48:41;97224.94;;;20.11;100.00
8697;BME280;4385;48.848;8.924;2023-05-14T10:51:08;97224.91;;;20.12;100.00
8697;BME280;4385;48.848;8.924;2023-05-14T10:53:36;97224.06;;;20.12;100.00
8697;BME280;4385;48.848;8.924;2023-05-14T10:56:03;97218.94;;;20.12;100.00
8697;BME280;4385;48.848;8.924;2023-05-14T10:58:30;97215.50;;;20.13;100.00
8697;BME280;4385;48.848;8.924;2023-05-14T11:00:58;97200.97;;;20.13;100.00
8697;BME280;4385;48.848;8.924;2023-05-14T11:03:28;97205.22;;;20.14;100.00
8697;BME280;4385;48.848;8.924;2023-05-14T11:05:54;97204.34;;;20.15;100.00
8697;BME280;4385;48.848;8.924;2023-05-14T11:08:20;97200.06;;;20.16;100.00
8697;BME280;4385;48.848;8.924;2023-05-14T11:10:46;97199.16;;;20.17;100.00
8697;BME280;4385;48.848;8.924;2023-05-14T11:13:13;97197.41;;;20.19;100.00
8697;BME280;4385;48.848;8.924;2023-05-14T11:15:39;97198.16;;;20.21;100.00
8697;BME280;4385;48.848;8.924;2023-05-14T11:18:11;97192.94;;;20.24;100.00
8697;BME280;4385;48.848;8.924;2023-05-14T11:20:36;97194.56;;;20.27;100.00
8697;BME280;4385;48.848;8.924;2023-05-14T11:23:01;97188.56;;;20.28;100.00
8697;BME280;4385;48.848;8.924;2023-05-14T11:25:27;97198.81;;;20.28;100.00
8697;BME280;4385;48.848;8.924;2023-05-14T11:27:53;97187.66;;;20.29;100.00
8697;BME280;4385;48.848;8.924;2023-05-14T11:30:22;97190.97;;;20.33;100.00
8697;BME280;4385;48.848;8.924;2023-05-14T11:32:48;97195.19;;;20.34;100.00
8697;BME280;4385;48.848;8.924;2023-05-14T11:35:14;97194.31;;;20.35;100.00
8697;BME280;4385;48.848;8.924;2023-05-14T11:37:40;97183.19;;;20.36;100.00
8697;BME280;4385;48.848;8.924;2023-05-14T11:40:08;97191.75;;;20.35;100.00
8697;BME280;4385;48.848;8.924;2023-05-14T11:42:36;97189.25;;;20.33;100.00
8697;BME280;4385;48.848;8.924;2023-05-14T11:45:01;97185.06;;;20.30;100.00
8697;BME280;4385;48.848;8.924;2023-05-14T11:47:28;97191.06;;;20.29;100.00
8697;BME280;4385;48.848;8.924;2023-05-14T11:49:53;97181.72;;;20.28;100.00
8697;BME280;4385;48.848;8.924;2023-05-14T11:52:19;97178.34;;;20.28;100.00
8697;BME280;4385;48.848;8.924;2023-05-14T11:54:46;97176.66;;;20.27;100.00
8697;BME280;4385;48.848;8.924;2023-05-14T11:57:16;97183.50;;;20.26;100.00
8697;BME280;4385;48.848;8.924;2023-05-14T11:59:42;97185.22;;;20.26;100.00
8697;BME280;4385;48.848;8.924;2023-05-14T12:02:13;97183.56;;;20.25;100.00
8697;BME280;4385;48.848;8.924;2023-05-14T12:04:40;97181.84;;;20.25;100.00
8697;BME280;4385;48.848;8.924;2023-05-14T12:07:08;97178.44;;;20.25;100.00
8697;BME280;4385;48.848;8.924;2023-05-14T12:09:39;97177.44;;;20.29;100.00
8697;BME280;4385;48.848;8.924;2023-05-14T12:12:09;97176.50;;;20.31;100.00
8697;BME280;4385;48.848;8.924;2023-05-14T12:14:40;97181.56;;;20.33;100.00
8697;BME280;4385;48.848;8.924;2023-05-14T12:17:19;97173.84;;;20.35;100.00
8697;BME280;4385;48.848;8.924;2023-05-14T12:19:47;97172.09;;;20.35;100.00
8697;BME280;4385;48.848;8.924;2023-05-14T12:22:15;97164.31;;;20.38;100.00
8697;BME280;4385;48.848;8.924;2023-05-14T12:24:42;97171.94;;;20.40;100.00
8697;BME280;4385;48.848;8.924;2023-05-14T12:27:09;97164.25;;;20.40;100.00
8697;BME280;4385;48.848;8.924;2023-05-14T12:29:37;97165.09;;;20.40;100.00
8697;BME280;4385;48.848;8.924;2023-05-14T12:32:06;97164.16;;;20.43;100.00
8697;BME280;4385;48.848;8.924;2023-05-14T12:34:34;97150.53;;;20.42;100.00
8697;BME280;4385;48.848;8.924;2023-05-14T12:36:59;97159.03;;;20.43;100.00
8697;BME280;4385;48.848;8.924;2023-05-14T12:39:25;97159.94;;;20.42;100.00
8697;BME280;4385;48.848;8.924;2023-05-14T12:41:50;97156.47;;;20.43;100.00
8697;BME280;4385;48.848;8.924;2023-05-14T12:44:15;97156.41;;;20.44;100.00
8697;BME280;4385;48.848;8.924;2023-05-14T12:46:40;97159.72;;;20.48;100.00
8697;BME280;4385;48.848;8.924;2023-05-14T12:49:06;97157.94;;;20.50;100.00
8697;BME280;4385;48.848;8.924;2023-05-14T12:51:31;97157.94;;;20.50;100.00
8697;BME280;4385;48.848;8.924;2023-05-14T12:53:56;97154.59;;;20.48;100.00
8697;BME280;4385;48.848;8.924;2023-05-14T12:56:22;97149.47;;;20.48;100.00
8697;BME280;4385;48.848;8.924;2023-05-14T12:58:52;97140.13;;;20.47;100.00
8697;BME280;4385;48.848;8.924;2023-05-14T13:01:17;97146.97;;;20.47;100.00
8697;BME280;4385;48.848;8.924;2023-05-14T13:03:42;97151.25;;;20.46;100.00
8697;BME280;4385;48.848;8.924;2023-05-14T13:06:08;97139.34;;;20.45;100.00
8697;BME280;4385;48.848;8.924;2023-05-14T13:08:33;97132.53;;;20.46;100.00